Edenton, North Carolina
Current Conditions -  °F | °C
As of 3:35 PM on Monday 26 Jan 2015 (Local Time) from KEDE Reporting Station
Overcast Overcast  
Wind Chill: 51°   Ceiling: 6000
Heat Index: 51°   Visibility: 10mi
Dew Point: 45°   Wind: 7mph
Humidity: 79%   Direction: 350°N
Pressure: 29.54"   Gusts: NA
Location:  36.07°N, 76.6°W
Report Text: KEDE 262035Z AUTO 35006KT 10SM SCT027 OVC060 11/07 A2954 RMK AO2 T01080072
Loading
Personal Weather Stations






























Interactive Weather Map New forecast layout! Learn more

10-Day Weather Forecast

Advertisements
Track Severe Weather on mobile